Time;durP1;ratioP1;P1;durP2;ratioP2;P2;SDS_P1;SDS_P2;PMS_P1;PMS_P2;Temp;Humidity;BMP_temperature;BMP_pressure;BME280_temperature;BME280_humidity;BME280_pressure;Samples;Min_cycle;Max_cycle;Signal;HPM_P1;HPM_P2
2022/01/08 00:00:53;;;;;;;;;;;2.30;99.90;;;;;;5032512;28;20264;-68
2022/01/08 00:03:19;;;;;;;;;;;2.30;99.90;;;;;;5033696;28;19959;-69
2022/01/08 00:05:45;;;;;;;;;;;2.30;99.90;;;;;;5032168;28;20386;-69
2022/01/08 00:08:10;;;;;;;;;;;2.30;99.90;;;;;;5032235;28;19975;-72
2022/01/08 00:10:37;;;;;;;;;;;2.30;99.90;;;;;;5033500;28;19963;-69
2022/01/08 00:13:05;;;;;;;;;;;2.30;99.90;;;;;;5033540;28;20414;-72
2022/01/08 00:15:34;;;;;;;;;;;2.40;99.90;;;;;;5038278;28;19914;-73
2022/01/08 00:17:59;;;;;;;;;;;2.40;99.90;;;;;;5013805;28;19957;-72
2022/01/08 00:20:26;;;;;;;;;;;2.40;99.90;;;;;;5031845;28;19929;-72
2022/01/08 00:22:53;;;;;;;;;;;2.40;99.90;;;;;;5033128;28;19924;-71
2022/01/08 00:25:19;;;;;;;;;;;2.40;99.90;;;;;;5033481;28;19914;-70
2022/01/08 00:27:45;;;;;;;;;;;2.40;99.90;;;;;;5036634;28;19932;-69
2022/01/08 00:30:13;;;;;;;;;;;2.40;99.90;;;;;;5035805;28;19913;-69
2022/01/08 00:32:39;;;;;;;;;;;2.40;99.90;;;;;;5035746;28;19913;-72
2022/01/08 00:35:05;;;;;;;;;;;2.40;99.90;;;;;;5036686;28;20007;-69
2022/01/08 00:37:33;;;;;;;;;;;2.40;99.90;;;;;;5035453;28;19919;-69
2022/01/08 00:39:58;;;;;;;;;;;2.40;99.90;;;;;;5036577;28;19913;-72
2022/01/08 00:42:24;;;;;;;;;;;2.50;99.90;;;;;;5036649;28;19924;-70
2022/01/08 00:44:50;;;;;;;;;;;2.40;99.90;;;;;;5036587;28;19939;-69
2022/01/08 00:47:15;;;;;;;;;;;2.50;99.90;;;;;;5034856;28;19921;-71
2022/01/08 00:49:41;;;;;;;;;;;2.50;99.90;;;;;;5036313;28;20347;-70
2022/01/08 00:52:07;;;;;;;;;;;2.50;99.90;;;;;;5035179;28;20371;-71
2022/01/08 00:54:35;;;;;;;;;;;2.50;99.90;;;;;;5036516;28;20015;-71
2022/01/08 00:57:02;;;;;;;;;;;2.50;99.90;;;;;;5036565;28;19913;-71
2022/01/08 00:59:27;;;;;;;;;;;2.60;99.90;;;;;;5036393;28;19939;-70
2022/01/08 01:01:53;;;;;;;;;;;2.70;99.90;;;;;;5036217;28;20368;-70
2022/01/08 01:04:18;;;;;;;;;;;2.70;99.90;;;;;;5035198;28;19917;-70
2022/01/08 01:06:44;;;;;;;;;;;2.70;99.90;;;;;;5036347;28;19948;-69
2022/01/08 01:09:10;;;;;;;;;;;2.80;99.90;;;;;;5036428;28;20004;-70
2022/01/08 01:11:35;;;;;;;;;;;2.80;99.90;;;;;;5036259;28;19920;-70
2022/01/08 01:14:01;;;;;;;;;;;2.80;99.90;;;;;;5036341;28;19913;-70
2022/01/08 01:16:26;;;;;;;;;;;2.70;99.90;;;;;;5036205;28;20322;-70
2022/01/08 01:18:53;;;;;;;;;;;2.70;99.90;;;;;;5051487;28;20059;-70
2022/01/08 01:21:19;;;;;;;;;;;2.90;99.90;;;;;;5035577;28;20359;-70
2022/01/08 01:23:45;;;;;;;;;;;2.90;99.90;;;;;;5035899;28;19946;-70
2022/01/08 01:26:16;;;;;;;;;;;3.00;99.90;;;;;;5035929;28;19971;-71
2022/01/08 01:28:49;;;;;;;;;;;3.00;99.90;;;;;;5035877;28;19925;-71
2022/01/08 01:47:10;;;;;;;;;;;3.30;99.90;;;;;;5035682;28;19932;-70
2022/01/08 01:49:37;;;;;;;;;;;3.40;99.90;;;;;;5050999;28;20279;-71
2022/01/08 01:52:03;;;;;;;;;;;3.40;99.90;;;;;;5035489;28;19920;-71
2022/01/08 01:54:29;;;;;;;;;;;3.50;99.90;;;;;;5035591;28;19913;-71
2022/01/08 01:56:57;;;;;;;;;;;3.50;99.90;;;;;;5035615;28;19921;-70
2022/01/08 01:59:23;;;;;;;;;;;3.60;99.90;;;;;;5035598;28;19913;-70
2022/01/08 02:01:49;;;;;;;;;;;3.60;99.90;;;;;;5035455;28;19913;-71
2022/01/08 02:04:15;;;;;;;;;;;3.60;99.90;;;;;;5034911;28;19936;-71
2022/01/08 02:06:40;;;;;;;;;;;4.10;99.90;;;;;;5035326;28;19927;-70
2022/01/08 02:09:06;;;;;;;;;;;3.90;99.90;;;;;;5033736;28;20368;-71
2022/01/08 02:11:31;;;;;;;;;;;3.90;99.90;;;;;;5033697;28;19913;-70
2022/01/08 02:14:03;;;;;;;;;;;4.20;99.90;;;;;;5034988;28;19919;-70
2022/01/08 02:16:29;;;;;;;;;;;;;;;;;;5035030;28;19922;-71
2022/01/08 02:18:55;;;;;;;;;;;5.80;99.90;;;;;;5034946;28;19917;-71
2022/01/08 02:21:20;;;;;;;;;;;4.40;99.90;;;;;;5033642;28;20020;-71
2022/01/08 02:23:48;;;;;;;;;;;4.40;99.90;;;;;;5033188;28;19917;-71
2022/01/08 02:26:13;;;;;;;;;;;3.20;99.90;;;;;;5034819;28;20356;-70
2022/01/08 02:28:40;;;;;;;;;;;4.50;99.90;;;;;;5033516;28;19928;-71
2022/01/08 02:31:05;;;;;;;;;;;4.50;99.90;;;;;;5034657;28;20429;-70
2022/01/08 02:33:31;;;;;;;;;;;4.60;99.90;;;;;;5034577;28;20006;-70
2022/01/08 02:35:57;;;;;;;;;;;4.50;99.90;;;;;;5034412;28;19940;-71
2022/01/08 02:38:24;;;;;;;;;;;4.40;99.90;;;;;;5034458;28;19920;-71
2022/01/08 02:40:56;;;;;;;;;;;4.50;99.90;;;;;;5034366;28;20272;-71
2022/01/08 02:43:23;;;;;;;;;;;4.60;99.90;;;;;;5030739;28;19917;-71
2022/01/08 02:45:48;;;;;;;;;;;4.80;99.90;;;;;;5032007;28;20364;-71
2022/01/08 02:48:14;;;;;;;;;;;4.70;99.90;;;;;;5047011;28;20004;-71
2022/01/08 02:50:40;;;;;;;;;;;;;;;;;;5034389;28;19914;-71
2022/01/08 02:53:05;;;;;;;;;;;4.80;99.90;;;;;;5034521;28;19917;-71
2022/01/08 02:55:31;;;;;;;;;;;4.90;99.90;;;;;;5033172;28;19913;-71
2022/01/08 02:57:57;;;;;;;;;;;4.80;99.90;;;;;;5034352;28;19925;-71
2022/01/08 03:00:22;;;;;;;;;;;4.90;99.90;;;;;;5034474;28;19917;-71
2022/01/08 03:02:49;;;;;;;;;;;4.90;99.90;;;;;;5034215;28;19913;-71
2022/01/08 03:05:15;;;;;;;;;;;4.90;99.90;;;;;;5034155;28;19928;-70
2022/01/08 03:07:42;;;;;;;;;;;5.00;99.90;;;;;;5032833;28;19921;-70
2022/01/08 03:10:10;;;;;;;;;;;4.90;99.90;;;;;;5032824;28;19917;-71
2022/01/08 03:12:41;;;;;;;;;;;5.20;99.90;;;;;;5034006;28;19966;-71
2022/01/08 03:15:07;;;;;;;;;;;5.10;99.90;;;;;;5033955;28;19913;-70
2022/01/08 03:17:33;;;;;;;;;;;5.20;99.90;;;;;;5049291;28;19917;-70
2022/01/08 03:20:04;;;;;;;;;;;5.30;99.90;;;;;;5034221;28;19963;-70
2022/01/08 03:22:30;;;;;;;;;;;5.10;99.90;;;;;;5032768;28;19920;-70
2022/01/08 03:24:55;;;;;;;;;;;5.20;99.90;;;;;;5033884;28;19914;-70
2022/01/08 03:27:21;;;;;;;;;;;5.30;99.90;;;;;;5033594;28;19921;-70
2022/01/08 03:29:47;;;;;;;;;;;5.30;99.90;;;;;;5033908;28;19913;-70
2022/01/08 03:32:12;;;;;;;;;;;5.20;99.90;;;;;;5032916;28;19967;-71
2022/01/08 03:34:38;;;;;;;;;;;5.40;99.90;;;;;;5033872;28;19917;-70
2022/01/08 03:37:03;;;;;;;;;;;5.20;99.90;;;;;;5033949;28;19917;-70
2022/01/08 03:39:29;;;;;;;;;;;5.20;99.90;;;;;;5033737;28;19913;-70
2022/01/08 03:41:55;;;;;;;;;;;5.30;99.90;;;;;;5032390;28;19917;-71
2022/01/08 03:44:21;;;;;;;;;;;5.30;99.90;;;;;;5033706;28;19913;-70
2022/01/08 03:46:46;;;;;;;;;;;5.20;99.90;;;;;;5033774;28;19917;-70
2022/01/08 03:51:38;;;;;;;;;;;5.20;99.90;;;;;;5033889;28;19919;-68
2022/01/08 03:54:03;;;;;;;;;;;5.00;99.90;;;;;;5033712;28;19996;-69
2022/01/08 03:56:29;;;;;;;;;;;4.50;99.90;;;;;;5033729;28;19940;-69
2022/01/08 03:58:55;;;;;;;;;;;4.30;99.90;;;;;;5032367;28;19917;-71
2022/01/08 04:01:20;;;;;;;;;;;;;;;;;;5036337;28;19917;-71
2022/01/08 04:03:46;;;;;;;;;;;3.90;99.90;;;;;;5037680;28;19961;-70
2022/01/08 04:06:12;;;;;;;;;;;4.00;99.90;;;;;;5037582;28;19917;-70
2022/01/08 04:08:37;;;;;;;;;;;4.00;99.90;;;;;;5037478;28;19976;-71
2022/01/08 04:11:03;;;;;;;;;;;3.90;99.90;;;;;;5037239;28;19913;-71
2022/01/08 04:13:32;;;;;;;;;;;4.00;99.90;;;;;;5035904;28;19913;-71
2022/01/08 04:16:10;;;;;;;;;;;3.80;99.90;;;;;;5037350;28;19913;-71
2022/01/08 04:18:36;;;;;;;;;;;3.80;99.90;;;;;;5036171;28;19917;-71
2022/01/08 04:21:58;;;;;;;;;;;3.60;99.90;;;;;;5036946;28;20253;-69
2022/01/08 04:23:47;;;;;;;;;;;3.70;99.90;;;;;;5016990;28;19920;-71
2022/01/08 04:26:13;;;;;;;;;;;3.60;99.90;;;;;;5016249;28;19913;-69
2022/01/08 04:28:39;;;;;;;;;;;3.60;99.90;;;;;;5032604;28;20012;-70
2022/01/08 04:31:04;;;;;;;;;;;3.60;99.90;;;;;;5015890;28;20383;-69
2022/01/08 04:33:30;;;;;;;;;;;3.50;99.90;;;;;;5015829;28;19921;-70
2022/01/08 04:35:55;;;;;;;;;;;3.40;99.90;;;;;;5017229;28;19940;-69
2022/01/08 04:38:21;;;;;;;;;;;3.40;99.90;;;;;;5017245;28;19914;-70
2022/01/08 04:40:47;;;;;;;;;;;3.30;99.90;;;;;;5015857;28;19913;-70
2022/01/08 04:43:13;;;;;;;;;;;3.30;99.90;;;;;;5017197;28;19967;-70
2022/01/08 04:45:39;;;;;;;;;;;3.30;99.90;;;;;;5032263;28;19914;-70
2022/01/08 04:48:06;;;;;;;;;;;3.20;99.90;;;;;;5015614;28;19932;-69
2022/01/08 04:50:32;;;;;;;;;;;3.10;99.90;;;;;;5017023;28;19918;-69
2022/01/08 04:52:58;;;;;;;;;;;3.20;99.90;;;;;;5032098;28;20524;-69
2022/01/08 04:55:24;;;;;;;;;;;3.00;99.90;;;;;;5031905;28;19921;-69
2022/01/08 04:57:49;;;;;;;;;;;3.00;99.90;;;;;;5015435;28;19987;-69
2022/01/08 05:00:16;;;;;;;;;;;3.00;99.90;;;;;;5016854;28;20402;-69
2022/01/08 05:02:42;;;;;;;;;;;3.00;99.90;;;;;;5016813;28;19921;-70
2022/01/08 05:05:08;;;;;;;;;;;3.00;99.90;;;;;;5016709;28;19924;-69
2022/01/08 05:07:33;;;;;;;;;;;2.90;99.90;;;;;;5031924;28;19928;-69
2022/01/08 05:09:59;;;;;;;;;;;2.90;99.90;;;;;;5016641;28;19913;-70
2022/01/08 05:12:24;;;;;;;;;;;2.80;99.90;;;;;;5015815;28;19943;-69
2022/01/08 05:14:50;;;;;;;;;;;2.70;99.90;;;;;;5016460;28;19917;-71
2022/01/08 05:17:16;;;;;;;;;;;2.60;99.90;;;;;;5016392;28;19913;-70
2022/01/08 05:19:46;;;;;;;;;;;2.70;99.90;;;;;;5016408;28;20008;-70
2022/01/08 05:22:21;;;;;;;;;;;2.60;99.90;;;;;;5016440;28;20257;-69
2022/01/08 05:24:46;;;;;;;;;;;2.60;99.90;;;;;;5016401;28;19918;-69
2022/01/08 05:27:17;;;;;;;;;;;2.70;99.90;;;;;;5015073;28;19925;-70
2022/01/08 05:29:47;;;;;;;;;;;2.60;99.90;;;;;;5016228;28;20292;-69
2022/01/08 05:32:16;;;;;;;;;;;2.70;99.90;;;;;;5016514;28;19917;-69
2022/01/08 05:34:46;;;;;;;;;;;2.70;99.90;;;;;;5015978;28;20041;-69
2022/01/08 05:37:12;;;;;;;;;;;2.60;99.90;;;;;;5014668;28;20015;-70
2022/01/08 05:39:38;;;;;;;;;;;2.70;99.90;;;;;;5015925;28;20416;-69
2022/01/08 05:42:04;;;;;;;;;;;2.70;99.90;;;;;;5015875;28;20028;-70
2022/01/08 05:44:29;;;;;;;;;;;2.70;99.90;;;;;;5015987;28;19959;-69
2022/01/08 05:46:55;;;;;;;;;;;2.70;99.90;;;;;;5015468;28;19924;-70
2022/01/08 05:49:20;;;;;;;;;;;2.70;99.90;;;;;;5015654;28;19914;-70
2022/01/08 05:51:46;;;;;;;;;;;2.70;99.90;;;;;;5015961;28;19917;-70
2022/01/08 05:54:11;;;;;;;;;;;2.80;99.90;;;;;;5030892;28;20339;-71
2022/01/08 05:56:37;;;;;;;;;;;2.70;99.90;;;;;;5015436;28;19914;-70
2022/01/08 05:59:03;;;;;;;;;;;2.80;99.90;;;;;;5030757;28;19918;-70
2022/01/08 06:01:29;;;;;;;;;;;2.80;99.90;;;;;;5015712;28;20004;-70
2022/01/08 06:03:54;;;;;;;;;;;2.80;99.90;;;;;;5015567;28;20407;-70
2022/01/08 06:06:20;;;;;;;;;;;2.70;99.90;;;;;;5015383;28;20311;-70
2022/01/08 06:08:45;;;;;;;;;;;2.80;99.90;;;;;;5014190;28;19949;-69
2022/01/08 06:11:11;;;;;;;;;;;2.80;99.90;;;;;;5015487;28;20384;-70
2022/01/08 06:13:37;;;;;;;;;;;2.80;99.90;;;;;;5032615;28;19917;-70
2022/01/08 06:16:02;;;;;;;;;;;2.80;99.90;;;;;;5033748;28;19913;-71
2022/01/08 06:18:28;;;;;;;;;;;2.80;99.90;;;;;;5033602;28;20366;-71
2022/01/08 06:20:55;;;;;;;;;;;2.90;99.90;;;;;;5035067;28;19916;-70
2022/01/08 06:23:21;;;;;;;;;;;2.90;99.90;;;;;;5035067;28;19913;-71
2022/01/08 06:25:47;;;;;;;;;;;3.60;99.90;;;;;;5033738;28;20245;-71
2022/01/08 06:28:12;;;;;;;;;;;3.00;99.90;;;;;;5033755;28;19928;-71
2022/01/08 06:30:38;;;;;;;;;;;3.00;99.90;;;;;;5033139;28;20675;-70
2022/01/08 06:33:04;;;;;;;;;;;3.00;99.90;;;;;;5031888;28;20435;-70
2022/01/08 06:35:29;;;;;;;;;;;3.00;99.90;;;;;;5034813;28;20007;-70
2022/01/08 06:37:55;;;;;;;;;;;3.00;99.90;;;;;;5032435;28;19924;-70
2022/01/08 06:40:21;;;;;;;;;;;2.90;99.90;;;;;;5033184;28;20380;-70
2022/01/08 06:42:46;;;;;;;;;;;2.90;99.90;;;;;;5034433;28;20019;-70
2022/01/08 06:45:12;;;;;;;;;;;2.80;99.90;;;;;;5034494;28;20339;-70
2022/01/08 06:47:38;;;;;;;;;;;2.80;99.90;;;;;;5030558;28;20171;-71
2022/01/08 06:50:04;;;;;;;;;;;2.80;99.90;;;;;;5047455;28;19913;-71
2022/01/08 06:52:29;;;;;;;;;;;2.80;99.90;;;;;;5050011;28;19913;-70
2022/01/08 06:54:55;;;;;;;;;;;2.80;99.90;;;;;;5034466;28;19921;-70
2022/01/08 06:57:20;;;;;;;;;;;2.80;99.90;;;;;;5034339;28;20617;-71
2022/01/08 06:59:46;;;;;;;;;;;2.80;99.90;;;;;;5034304;28;20367;-70
2022/01/08 07:02:12;;;;;;;;;;;2.80;99.90;;;;;;5034263;28;20008;-71
2022/01/08 07:04:37;;;;;;;;;;;2.80;99.90;;;;;;5032556;28;20355;-71
2022/01/08 07:07:03;;;;;;;;;;;2.80;99.90;;;;;;5034415;28;20012;-70
2022/01/08 07:09:28;;;;;;;;;;;2.70;99.90;;;;;;5034249;28;20405;-70
2022/01/08 07:11:54;;;;;;;;;;;2.70;99.90;;;;;;5034221;28;20118;-70
2022/01/08 07:14:19;;;;;;;;;;;2.80;99.90;;;;;;5032709;28;19913;-70
2022/01/08 07:16:47;;;;;;;;;;;2.80;99.90;;;;;;5033730;28;20012;-70
2022/01/08 07:19:12;;;;;;;;;;;2.70;99.90;;;;;;5032809;28;19920;-70
2022/01/08 07:21:38;;;;;;;;;;;2.70;99.90;;;;;;5034096;28;19917;-70
2022/01/08 07:24:04;;;;;;;;;;;2.80;99.90;;;;;;5033859;28;20390;-70
2022/01/08 07:26:29;;;;;;;;;;;2.70;99.90;;;;;;5033536;28;19913;-70
2022/01/08 07:28:55;;;;;;;;;;;2.70;99.90;;;;;;5033643;28;20370;-70
2022/01/08 07:31:22;;;;;;;;;;;2.70;99.90;;;;;;5033972;28;19917;-70
2022/01/08 07:33:49;;;;;;;;;;;2.70;99.90;;;;;;5033614;28;19917;-70
2022/01/08 07:36:19;;;;;;;;;;;2.80;99.90;;;;;;5032505;28;19917;-71
2022/01/08 07:38:44;;;;;;;;;;;2.70;99.90;;;;;;5033901;28;20391;-71
2022/01/08 07:41:10;;;;;;;;;;;2.70;99.90;;;;;;5032459;28;19959;-70
2022/01/08 07:43:36;;;;;;;;;;;2.70;99.90;;;;;;5049105;28;19948;-70
2022/01/08 07:46:01;;;;;;;;;;;2.80;99.90;;;;;;5033528;28;19917;-70
2022/01/08 07:48:27;;;;;;;;;;;2.80;99.90;;;;;;5033638;28;20379;-70
2022/01/08 07:50:52;;;;;;;;;;;2.80;99.90;;;;;;5032255;28;19986;-70
2022/01/08 07:53:18;;;;;;;;;;;2.80;99.90;;;;;;5033602;28;19949;-70
2022/01/08 07:55:44;;;;;;;;;;;2.70;99.90;;;;;;5049093;28;19913;-70
2022/01/08 07:58:10;;;;;;;;;;;2.70;99.90;;;;;;5033746;28;19967;-70
2022/01/08 08:00:35;;;;;;;;;;;2.80;99.90;;;;;;5032272;28;19999;-70
2022/01/08 08:03:01;;;;;;;;;;;2.80;99.90;;;;;;5033627;28;19913;-70
2022/01/08 08:05:27;;;;;;;;;;;2.90;99.90;;;;;;5033430;28;20322;-70
2022/01/08 08:07:54;;;;;;;;;;;2.90;99.90;;;;;;5032090;28;19921;-71
2022/01/08 08:10:22;;;;;;;;;;;2.90;99.90;;;;;;5033532;28;19913;-71
2022/01/08 08:12:47;;;;;;;;;;;3.00;99.90;;;;;;5033487;28;19921;-71
2022/01/08 08:15:15;;;;;;;;;;;3.00;99.90;;;;;;5033421;28;20360;-71
2022/01/08 08:17:40;;;;;;;;;;;3.00;99.90;;;;;;5033510;28;19917;-71
2022/01/08 08:20:06;;;;;;;;;;;3.00;99.90;;;;;;5033443;28;19914;-71
2022/01/08 08:22:32;;;;;;;;;;;3.00;99.90;;;;;;5032095;28;19959;-71
2022/01/08 08:24:58;;;;;;;;;;;3.00;99.90;;;;;;5031111;28;19917;-71
2022/01/08 08:27:23;;;;;;;;;;;3.00;99.90;;;;;;5031778;28;19921;-71
2022/01/08 08:29:49;;;;;;;;;;;3.00;99.90;;;;;;5031804;28;19945;-71
2022/01/08 08:32:14;;;;;;;;;;;3.00;99.90;;;;;;5033237;28;19917;-71
2022/01/08 08:34:40;;;;;;;;;;;3.10;99.90;;;;;;5033164;28;19920;-71
2022/01/08 08:37:06;;;;;;;;;;;3.10;99.90;;;;;;5033153;28;19920;-71
2022/01/08 08:39:31;;;;;;;;;;;3.00;99.90;;;;;;5033130;28;19917;-71
2022/01/08 08:41:57;;;;;;;;;;;3.10;99.90;;;;;;5033128;28;19948;-71
2022/01/08 08:44:23;;;;;;;;;;;3.10;99.90;;;;;;5033139;28;20034;-71
2022/01/08 08:46:48;;;;;;;;;;;3.10;99.90;;;;;;5034255;28;19960;-71
2022/01/08 08:49:14;;;;;;;;;;;3.10;99.90;;;;;;5036785;28;19928;-71
2022/01/08 08:51:39;;;;;;;;;;;3.10;99.90;;;;;;5036581;28;20039;-71
2022/01/08 08:54:05;;;;;;;;;;;3.10;99.90;;;;;;5035987;28;19928;-71
2022/01/08 08:56:31;;;;;;;;;;;3.10;99.90;;;;;;5035517;28;20000;-70
2022/01/08 08:58:56;;;;;;;;;;;3.20;99.90;;;;;;5030213;28;19968;-71
2022/01/08 09:01:22;;;;;;;;;;;3.20;99.90;;;;;;5033031;28;20271;-70
2022/01/08 09:03:48;;;;;;;;;;;3.40;99.90;;;;;;5032655;28;19967;-71
2022/01/08 09:06:13;;;;;;;;;;;3.10;99.90;;;;;;5034655;28;19960;-71
2022/01/08 09:08:39;;;;;;;;;;;3.20;99.90;;;;;;5034101;28;19925;-71
2022/01/08 09:11:05;;;;;;;;;;;3.10;99.90;;;;;;5034053;28;20422;-71
2022/01/08 09:13:31;;;;;;;;;;;3.00;99.90;;;;;;5032639;28;19948;-72
2022/01/08 09:15:56;;;;;;;;;;;3.00;99.90;;;;;;5033831;28;19917;-71
2022/01/08 09:18:22;;;;;;;;;;;3.00;99.90;;;;;;5034965;28;20011;-71
2022/01/08 09:20:48;;;;;;;;;;;3.20;99.90;;;;;;5035554;28;19919;-71
2022/01/08 09:23:13;;;;;;;;;;;4.40;99.90;;;;;;5035826;28;19921;-69
2022/01/08 09:25:39;;;;;;;;;;;3.50;99.90;;;;;;5035575;28;19970;-70
2022/01/08 09:28:05;;;;;;;;;;;3.30;99.90;;;;;;5033349;28;19979;-70
2022/01/08 09:30:30;;;;;;;;;;;3.20;99.90;;;;;;5033856;28;19924;-71
2022/01/08 09:32:56;;;;;;;;;;;3.20;99.90;;;;;;5048761;28;19913;-69
2022/01/08 09:35:22;;;;;;;;;;;3.20;99.90;;;;;;5033773;28;19967;-70
2022/01/08 09:37:48;;;;;;;;;;;3.10;99.90;;;;;;5033893;28;19996;-70
2022/01/08 09:40:15;;;;;;;;;;;3.10;99.90;;;;;;5017896;28;20016;-70
2022/01/08 09:42:41;;;;;;;;;;;3.10;99.90;;;;;;5013747;28;19917;-69
2022/01/08 09:45:07;;;;;;;;;;;3.00;99.90;;;;;;5013679;28;20377;-69
2022/01/08 09:47:33;;;;;;;;;;;3.10;99.90;;;;;;5014172;28;20011;-69
2022/01/08 09:49:58;;;;;;;;;;;3.10;99.90;;;;;;5013630;28;20276;-69
2022/01/08 09:52:24;;;;;;;;;;;3.10;99.90;;;;;;5024198;28;20003;-69
2022/01/08 09:54:50;;;;;;;;;;;3.10;99.90;;;;;;5033543;28;19913;-71
2022/01/08 09:57:16;;;;;;;;;;;3.20;99.90;;;;;;5033273;28;19960;-70
2022/01/08 09:59:42;;;;;;;;;;;3.20;99.90;;;;;;5033134;28;19913;-70
2022/01/08 10:02:08;;;;;;;;;;;3.10;99.90;;;;;;5034813;28;19920;-69
2022/01/08 10:04:35;;;;;;;;;;;3.10;99.90;;;;;;5034882;28;19913;-69
2022/01/08 10:07:19;;;;;;;;;;;3.20;99.90;;;;;;5033063;28;19913;-69
2022/01/08 10:10:01;;;;;;;;;;;3.20;99.90;;;;;;5033120;28;19967;-70
2022/01/08 10:12:35;;;;;;;;;;;3.20;99.90;;;;;;5034270;28;19924;-69
2022/01/08 10:17:46;;;;;;;;;;;3.20;99.90;;;;;;5033328;28;19968;-70
2022/01/08 10:20:11;;;;;;;;;;;3.20;99.90;;;;;;5034385;28;19917;-70
2022/01/08 10:22:37;;;;;;;;;;;3.20;99.90;;;;;;5032922;28;19921;-70
2022/01/08 10:25:10;;;;;;;;;;;3.10;99.90;;;;;;5027940;28;20011;-70
2022/01/08 10:27:37;;;;;;;;;;;3.40;99.90;;;;;;5030157;28;19924;-71
2022/01/08 10:30:04;;;;;;;;;;;3.30;99.90;;;;;;5031219;28;19921;-71
2022/01/08 10:32:30;;;;;;;;;;;3.10;99.90;;;;;;5031084;28;19920;-71
2022/01/08 10:34:55;;;;;;;;;;;3.20;99.90;;;;;;5028767;28;20641;-70
2022/01/08 10:37:21;;;;;;;;;;;3.10;99.90;;;;;;5032554;28;20382;-71
2022/01/08 10:39:52;;;;;;;;;;;3.10;99.90;;;;;;5029840;28;19924;-71
2022/01/08 10:42:18;;;;;;;;;;;3.10;99.90;;;;;;5030113;28;20352;-71
2022/01/08 10:44:47;;;;;;;;;;;3.00;99.90;;;;;;5032070;28;19913;-70
2022/01/08 10:47:16;;;;;;;;;;;3.00;99.90;;;;;;5037657;28;19925;-70
2022/01/08 10:49:43;;;;;;;;;;;3.00;99.90;;;;;;5042759;28;19949;-70
2022/01/08 10:52:10;;;;;;;;;;;2.90;99.90;;;;;;5032038;28;19959;-74
2022/01/08 10:54:37;;;;;;;;;;;2.80;99.90;;;;;;5031504;28;20249;-69
2022/01/08 10:57:06;;;;;;;;;;;2.80;99.90;;;;;;5033792;28;19917;-72
2022/01/08 10:59:32;;;;;;;;;;;2.80;99.90;;;;;;5034022;28;19913;-70
2022/01/08 11:01:58;;;;;;;;;;;2.80;99.90;;;;;;5031985;28;19920;-69
2022/01/08 11:04:33;;;;;;;;;;;3.00;99.90;;;;;;5030486;28;19919;-69
2022/01/08 11:07:07;;;;;;;;;;;2.80;99.90;;;;;;5030682;28;19913;-69
2022/01/08 11:09:32;;;;;;;;;;;2.90;99.90;;;;;;5030771;28;19939;-69
2022/01/08 11:11:59;;;;;;;;;;;2.90;99.90;;;;;;5029665;28;20360;-74
2022/01/08 11:17:15;;;;;;;;;;;3.00;99.90;;;;;;5012254;28;19920;-72
2022/01/08 11:19:42;;;;;;;;;;;3.00;99.90;;;;;;5012337;28;19914;-70
2022/01/08 11:22:10;;;;;;;;;;;3.00;99.90;;;;;;5015434;28;19917;-70
2022/01/08 11:24:35;;;;;;;;;;;3.00;99.90;;;;;;5029944;28;20360;-70
2022/01/08 11:27:01;;;;;;;;;;;3.00;99.90;;;;;;5030909;28;19920;-70
2022/01/08 11:29:27;;;;;;;;;;;3.00;99.90;;;;;;5029879;28;19967;-71
2022/01/08 11:31:55;;;;;;;;;;;3.00;99.90;;;;;;5009828;28;20205;-70
2022/01/08 11:34:25;;;;;;;;;;;3.10;99.90;;;;;;5029698;28;20380;-70
2022/01/08 11:36:51;;;;;;;;;;;3.10;99.90;;;;;;5029803;28;19913;-70
2022/01/08 11:39:17;;;;;;;;;;;3.00;99.90;;;;;;5030936;28;19999;-70
2022/01/08 11:41:42;;;;;;;;;;;3.00;99.90;;;;;;5032892;28;19913;-70
2022/01/08 11:44:08;;;;;;;;;;;3.10;99.90;;;;;;5031376;28;19963;-70
2022/01/08 11:46:35;;;;;;;;;;;3.00;99.90;;;;;;5030489;28;19925;-70
2022/01/08 11:49:01;;;;;;;;;;;3.00;99.90;;;;;;5029586;28;19976;-70
2022/01/08 11:51:29;;;;;;;;;;;3.00;99.90;;;;;;5029832;28;19941;-71
2022/01/08 11:53:56;;;;;;;;;;;3.10;99.90;;;;;;5030861;28;19964;-70
2022/01/08 11:56:39;;;;;;;;;;;3.10;99.90;;;;;;5033171;28;19914;-70
2022/01/08 11:59:05;;;;;;;;;;;3.10;99.90;;;;;;5032090;28;19920;-70
2022/01/08 12:01:31;;;;;;;;;;;3.10;99.90;;;;;;5029966;28;19940;-70
2022/01/08 12:03:57;;;;;;;;;;;3.20;99.90;;;;;;5028019;28;19957;-71
2022/01/08 12:06:31;;;;;;;;;;;3.20;99.90;;;;;;5011843;28;19917;-75
2022/01/08 12:09:23;;;;;;;;;;;3.10;99.90;;;;;;5028516;28;19961;-80
2022/01/08 12:11:46;;;;;;;;;;;3.10;99.90;;;;;;5030503;28;19920;-82
2022/01/08 12:14:13;;;;;;;;;;;3.10;99.90;;;;;;5029302;28;20342;-79
2022/01/08 12:16:40;;;;;;;;;;;3.20;99.90;;;;;;5030093;28;19917;-80
2022/01/08 12:19:25;;;;;;;;;;;3.30;99.90;;;;;;5029962;28;19957;-78
2022/01/08 12:21:51;;;;;;;;;;;3.30;99.90;;;;;;5033243;28;20327;-81
2022/01/08 12:24:16;;;;;;;;;;;3.30;99.90;;;;;;5033770;28;19917;-71
2022/01/08 12:26:42;;;;;;;;;;;3.30;99.90;;;;;;5033503;28;19959;-81
2022/01/08 12:29:08;;;;;;;;;;;3.30;99.90;;;;;;5036052;28;19921;-70
2022/01/08 12:31:47;;;;;;;;;;;3.20;99.90;;;;;;5034597;28;19913;-82
2022/01/08 12:34:35;;;;;;;;;;;3.10;99.90;;;;;;5033435;28;19936;-77
2022/01/08 12:37:10;;;;;;;;;;;3.10;99.90;;;;;;5032594;28;19913;-79
2022/01/08 12:39:42;;;;;;;;;;;3.10;99.90;;;;;;5034236;28;20385;-82
2022/01/08 12:42:20;;;;;;;;;;;3.10;99.90;;;;;;5032823;28;20268;-82
2022/01/08 12:44:55;;;;;;;;;;;3.10;99.90;;;;;;5032983;28;19914;-81
2022/01/08 12:47:40;;;;;;;;;;;3.10;99.90;;;;;;5034281;28;20322;-80
2022/01/08 12:50:16;;;;;;;;;;;3.20;99.90;;;;;;5032478;28;20383;-82
2022/01/08 12:53:00;;;;;;;;;;;3.10;99.90;;;;;;5033832;28;19965;-82
2022/01/08 12:55:26;;;;;;;;;;;3.20;99.90;;;;;;5034506;28;19967;-82
2022/01/08 12:57:52;;;;;;;;;;;3.40;99.90;;;;;;5032763;28;19920;-81
2022/01/08 13:00:17;;;;;;;;;;;3.50;99.90;;;;;;5033399;28;19963;-78
2022/01/08 13:02:47;;;;;;;;;;;3.40;99.90;;;;;;5034642;28;19913;-76
2022/01/08 13:05:12;;;;;;;;;;;3.50;99.90;;;;;;5033841;28;19917;-75
2022/01/08 13:07:51;;;;;;;;;;;3.50;99.90;;;;;;5032315;28;20101;-81
2022/01/08 13:10:17;;;;;;;;;;;3.50;99.90;;;;;;5032942;28;19913;-79
2022/01/08 13:12:43;;;;;;;;;;;3.60;99.90;;;;;;5032121;28;19917;-81
2022/01/08 13:15:09;;;;;;;;;;;3.70;99.90;;;;;;5033905;28;19917;-80
2022/01/08 13:17:35;;;;;;;;;;;3.80;99.90;;;;;;5034155;28;19964;-73
2022/01/08 13:20:04;;;;;;;;;;;3.70;99.90;;;;;;5034844;28;19918;-74
2022/01/08 13:22:31;;;;;;;;;;;3.80;99.90;;;;;;5032080;28;19913;-81
2022/01/08 13:24:57;;;;;;;;;;;3.80;99.90;;;;;;5032174;28;19913;-83
2022/01/08 13:27:24;;;;;;;;;;;3.80;99.90;;;;;;5032704;28;20275;-82
2022/01/08 13:29:51;;;;;;;;;;;3.70;99.90;;;;;;5032185;28;19948;-82
2022/01/08 13:32:18;;;;;;;;;;;3.60;99.90;;;;;;5031695;28;19920;-83
2022/01/08 13:34:46;;;;;;;;;;;3.70;99.90;;;;;;5034036;28;20004;-82
2022/01/08 13:37:12;;;;;;;;;;;3.70;99.90;;;;;;5032559;28;19921;-83
2022/01/08 13:39:38;;;;;;;;;;;3.80;99.90;;;;;;5035446;28;19913;-83
2022/01/08 13:42:10;;;;;;;;;;;3.80;99.90;;;;;;5032307;28;20003;-83
2022/01/08 13:44:40;;;;;;;;;;;3.90;99.90;;;;;;5037665;28;20040;-82
2022/01/08 13:47:15;;;;;;;;;;;4.00;99.90;;;;;;5012901;28;20385;-81
2022/01/08 13:49:41;;;;;;;;;;;4.00;99.90;;;;;;5013761;28;20399;-80
2022/01/08 13:52:15;;;;;;;;;;;4.00;99.90;;;;;;5012827;28;19913;-81
2022/01/08 13:54:41;;;;;;;;;;;4.00;99.90;;;;;;5013741;28;19914;-81
2022/01/08 13:57:11;;;;;;;;;;;4.00;99.90;;;;;;5014515;28;19920;-82
2022/01/08 13:59:36;;;;;;;;;;;4.00;99.90;;;;;;5032203;28;19967;-80
2022/01/08 14:02:02;;;;;;;;;;;4.00;99.90;;;;;;5032671;28;19913;-80
2022/01/08 14:04:29;;;;;;;;;;;4.00;99.90;;;;;;5034038;28;19913;-78
2022/01/08 14:06:57;;;;;;;;;;;4.00;99.90;;;;;;5030945;28;20249;-73
2022/01/08 14:09:23;;;;;;;;;;;4.00;99.90;;;;;;5032696;28;19921;-80
2022/01/08 14:11:49;;;;;;;;;;;4.00;99.90;;;;;;5034181;28;20010;-79
2022/01/08 14:14:19;;;;;;;;;;;4.00;99.90;;;;;;5033126;28;20012;-80
2022/01/08 14:16:45;;;;;;;;;;;3.90;99.90;;;;;;5031335;28;19948;-80
2022/01/08 14:19:13;;;;;;;;;;;3.90;99.90;;;;;;5031369;28;19917;-75
2022/01/08 14:21:39;;;;;;;;;;;3.90;99.90;;;;;;5032048;28;19963;-80
2022/01/08 14:24:15;;;;;;;;;;;4.00;99.90;;;;;;5031769;28;20291;-81
2022/01/08 14:26:42;;;;;;;;;;;4.00;99.90;;;;;;5028675;28;20375;-80
2022/01/08 14:29:12;;;;;;;;;;;4.10;99.90;;;;;;5032226;28;20219;-81
2022/01/08 14:31:39;;;;;;;;;;;4.10;99.90;;;;;;5030916;28;20593;-82
2022/01/08 14:34:12;;;;;;;;;;;4.10;99.90;;;;;;5032212;28;20390;-83
2022/01/08 14:36:39;;;;;;;;;;;4.20;99.90;;;;;;5031762;28;19917;-81
2022/01/08 14:39:04;;;;;;;;;;;4.10;99.90;;;;;;5032693;28;20003;-83
2022/01/08 14:41:34;;;;;;;;;;;4.10;99.90;;;;;;5032389;28;20000;-81
2022/01/08 14:44:00;;;;;;;;;;;4.20;99.90;;;;;;5041858;28;19913;-78
2022/01/08 14:46:26;;;;;;;;;;;4.20;99.90;;;;;;5030868;28;19920;-83
2022/01/08 14:48:52;;;;;;;;;;;4.20;99.90;;;;;;5031187;28;19978;-84
2022/01/08 14:51:18;;;;;;;;;;;4.20;99.90;;;;;;5029550;28;19917;-84
2022/01/08 14:53:43;;;;;;;;;;;4.20;99.90;;;;;;5032019;28;19913;-76